Hanjin Ottawa — DANM — position and weather

sailwx.info

Track history (hours):
 
Tides and Currents Weather Stations Pressure Air Temp Water Temp Dewpoint Dewpoint Depression Visibility Wind Speed Wind Dir Waves Ship Positions

Hanjin Ottawa

Last reported at 2015-Mar-26 22:18 UTC. Time now 2015-Mar-30 17:33 UTC.
Position N 49°06' W 134°30'.

Length 278.8 m; beam 40.3 m; draft 14 m.

Type: Ship. MMSI: 211378360.

Wind from 220 at 18 knots

Waves 2.0 meters (7 feet), 2 second period

Barometer 1010.0 mb
Air temperature 12.0 ° C
Visibility: greater than 5.4 NM
Water temperature 8.0 ° C

Date/timePositionNaut miles runAvg speedWind from/ knotsBaromVisibWave heightAir tempDewpointWater temp
2015-Mar-26 22:18N 49°06' W 134°30'   220 / 181010.0 5.4 2.012.0 8.0
2015-Mar-24 17:31N 48°31' W 126°29'10 9.2
2015-Mar-24 16:28N 48°31' W 126°15'9 9.5
2015-Mar-24 15:33N 48°30' W 126°02'9 9.3
2015-Mar-24 14:33N 48°30' W 125°48'9 9.5
2015-Mar-24 13:33N 48°31' W 125°33'9 9.0
2015-Mar-24 12:33N 48°32' W 125°20'9 9.0
2015-Mar-24 11:33N 48°31' W 125°06'9 9.1
2015-Mar-24 10:33N 48°31' W 124°53'9 9.2
2015-Mar-24 09:33N 48°29' W 124°39'1010.2
2015-Mar-24 08:33N 48°25' W 124°25'1110.9
2015-Mar-24 07:33N 48°21' W 124°10'1211.5
2015-Mar-24 06:32N 48°17' W 123°53'1010.7
2015-Mar-24 05:33N 48°16' W 123°37'1010.5
2015-Mar-24 04:33N 48°22' W 123°25'1211.8
2015-Mar-24 03:33N 48°31' W 123°13'1312.7
2015-Mar-24 02:33N 48°44' W 123°09'10 9.7
2015-Mar-24 01:34N 48°53' W 123°07'1515.1
2015-Mar-24 00:33N 49°04' W 123°24'1615.6
2015-Mar-23 23:33N 49°19' W 123°17'8 7.9
2015-Mar-23 22:32N 49°17' W 123°05'0 0.0
2015-Mar-23 21:32N 49°17' W 123°05'0 0.0
2015-Mar-23 20:31N 49°17' W 123°05'0 0.0
2015-Mar-23 19:31N 49°17' W 123°05'0 0.0
2015-Mar-23 18:30N 49°17' W 123°05'0 0.0
2015-Mar-23 17:33N 49°17' W 123°05'0 0.0
2015-Mar-23 16:32N 49°17' W 123°05'0 0.0
2015-Mar-23 15:29N 49°17' W 123°05'0 0.0
2015-Mar-23 14:32N 49°17' W 123°05'0 0.0
2015-Mar-23 13:31N 49°17' W 123°05'0 0.0
2015-Mar-23 12:31N 49°17' W 123°05'0 0.0
2015-Mar-23 11:33N 49°17' W 123°05'0 0.0
2015-Mar-23 10:33N 49°17' W 123°05'0 0.0
2015-Mar-23 09:32N 49°17' W 123°05'0 0.0
2015-Mar-23 08:32N 49°17' W 123°05'0 0.0
2015-Mar-23 07:32N 49°17' W 123°05'0 0.0
2015-Mar-23 06:31N 49°17' W 123°05'0 0.0
2015-Mar-23 05:31N 49°17' W 123°05'0 0.0
2015-Mar-23 04:30N 49°17' W 123°05'0 0.0
2015-Mar-23 03:33N 49°17' W 123°05'0 0.0
2015-Mar-23 02:32N 49°17' W 123°05'0 0.0
2015-Mar-23 01:32N 49°17' W 123°05'0 0.0
2015-Mar-23 00:25N 49°17' W 123°05'0 0.0
2015-Mar-22 23:31N 49°17' W 123°05'1 0.9
2015-Mar-22 22:33N 49°18' W 123°06'1111.0
2015-Mar-22 21:33N 49°11' W 123°20'1514.5
2015-Mar-22 20:33N 48°58' W 123°12'1313.3
2015-Mar-22 19:33N 48°46' W 123°03'1111.4
2015-Mar-22 18:33N 48°37' W 123°13'1312.7
2015-Mar-22 17:33N 48°24' W 123°12'1110.7
2015-Mar-22 16:33N 48°18' W 123°26'10 9.9
2015-Mar-22 15:33N 48°09' W 123°20'1616.2
2015-Mar-22 14:33N 48°12' W 122°56'1514.8
2015-Mar-22 13:33N 48°03' W 122°38'1515.3
2015-Mar-22 12:33N 47°50' W 122°27'1414.0
2015-Mar-22 11:33N 47°36' W 122°22'1 1.2
2015-Mar-22 10:33N 47°36' W 122°21'0 0.0
2015-Mar-22 09:33N 47°36' W 122°21'0 0.0
2015-Mar-22 08:32N 47°36' W 122°21'0 0.0
2015-Mar-22 07:32N 47°36' W 122°21'0 0.0
2015-Mar-22 06:32N 47°36' W 122°21'0 0.0
2015-Mar-22 05:31N 47°36' W 122°21'0 0.0
2015-Mar-22 04:31N 47°36' W 122°21'0 0.0
2015-Mar-22 03:30N 47°36' W 122°21'0 0.0
2015-Mar-22 02:33N 47°36' W 122°21'0 0.0
2015-Mar-22 01:32N 47°36' W 122°21'0 0.0
2015-Mar-22 00:29N 47°36' W 122°21'0 0.0
2015-Mar-21 23:32N 47°36' W 122°21'0 0.0
2015-Mar-21 22:31N 47°36' W 122°21'0 0.0
2015-Mar-21 21:28N 47°36' W 122°21'0 0.0
2015-Mar-21 20:33N 47°36' W 122°21'0 0.0
2015-Mar-21 19:33N 47°36' W 122°21'0 0.0
2015-Mar-21 18:32N 47°36' W 122°21'0 0.0
2015-Mar-21 17:32N 47°36' W 122°21'0 0.0
2015-Mar-21 16:31N 47°36' W 122°21'0 0.0
2015-Mar-21 15:31N 47°36' W 122°21'0 0.0
2015-Mar-21 14:31N 47°36' W 122°21'0 0.0
2015-Mar-21 13:30N 47°36' W 122°21'0 0.0
2015-Mar-21 12:30N 47°36' W 122°21'0 0.0
2015-Mar-21 11:32N 47°36' W 122°21'0 0.0
2015-Mar-21 10:32N 47°36' W 122°21'0 0.0
2015-Mar-21 09:31N 47°36' W 122°21'0 0.0
2015-Mar-21 08:31N 47°36' W 122°21'0 0.0
2015-Mar-21 07:31N 47°36' W 122°21'0 0.0
2015-Mar-21 06:33N 47°36' W 122°21'0 0.0
2015-Mar-21 05:33N 47°36' W 122°21'0 0.0
2015-Mar-21 04:32N 47°36' W 122°21'0 0.0
2015-Mar-21 03:32N 47°36' W 122°21'0 0.0
2015-Mar-21 02:31N 47°36' W 122°21'0 0.0
2015-Mar-21 01:31N 47°36' W 122°21'0 0.0
2015-Mar-21 00:31N 47°36' W 122°21'0 0.0
2015-Mar-20 23:33N 47°36' W 122°21'0 0.0
2015-Mar-20 22:30N 47°36' W 122°21'0 0.0
2015-Mar-20 21:29N 47°36' W 122°21'0 0.0
2015-Mar-20 20:32N 47°36' W 122°21'0 0.0
2015-Mar-20 19:28N 47°36' W 122°21'0 0.0
2015-Mar-20 18:31N 47°36' W 122°21'0 0.0
2015-Mar-20 17:34N 47°36' W 122°21'0 0.0
2015-Mar-20 16:33N 47°36' W 122°21'0 0.0
2015-Mar-20 15:33N 47°36' W 122°21'0 0.0
2015-Mar-20 14:32N 47°36' W 122°21'0 0.0
2015-Mar-20 13:32N 47°36' W 122°21'0 0.0
2015-Mar-20 12:31N 47°36' W 122°21'0 0.0
2015-Mar-20 11:28N 47°36' W 122°21'0 0.0
2015-Mar-20 10:33N 47°36' W 122°21'0 0.0
2015-Mar-20 09:33N 47°36' W 122°21'0 0.0
2015-Mar-20 08:33N 47°36' W 122°21'0 0.0
2015-Mar-20 07:29N 47°36' W 122°21'0 0.0
2015-Mar-20 06:32N 47°36' W 122°21'0 0.0
2015-Mar-20 05:31N 47°36' W 122°21'0 0.0
2015-Mar-20 04:31N 47°36' W 122°21'0 0.0
2015-Mar-20 03:30N 47°36' W 122°21'0 0.0
2015-Mar-20 02:33N 47°36' W 122°21'0 0.0
2015-Mar-20 01:33N 47°36' W 122°21'0 0.0
2015-Mar-20 00:26N 47°36' W 122°21'0 0.0
2015-Mar-19 23:32N 47°36' W 122°21'0 0.0
2015-Mar-19 22:22N 47°36' W 122°21'0 0.0
2015-Mar-19 21:33N 47°36' W 122°21'0 0.0
2015-Mar-19 20:30N 47°36' W 122°21'0 0.0
2015-Mar-19 19:30N 47°36' W 122°21'0 0.0
2015-Mar-19 18:33N 47°36' W 122°21'0 0.0
2015-Mar-19 17:32N 47°36' W 122°21'0 0.0
2015-Mar-19 16:32N 47°36' W 122°21'0 0.0
2015-Mar-19 15:31N 47°36' W 122°21'0 0.0
2015-Mar-19 14:31N 47°36' W 122°21'0 0.0
2015-Mar-19 13:33N 47°36' W 122°21'0 0.0
2015-Mar-19 12:33N 47°36' W 122°21'0 0.0
2015-Mar-19 11:29N 47°36' W 122°21'0 0.0
2015-Mar-19 10:32N 47°36' W 122°21'0 0.0
2015-Mar-19 09:32N 47°36' W 122°21'0 0.0
2015-Mar-19 08:31N 47°36' W 122°21'0 0.0
2015-Mar-19 07:31N 47°36' W 122°21'0 0.0
2015-Mar-19 06:33N 47°36' W 122°21'0 0.0
2015-Mar-19 05:33N 47°36' W 122°21'0 0.0
2015-Mar-19 04:32N 47°36' W 122°21'0 0.0
2015-Mar-19 03:32N 47°36' W 122°21'0 0.0
2015-Mar-19 02:32N 47°36' W 122°21'0 0.0
2015-Mar-19 01:31N 47°36' W 122°21'0 0.0
2015-Mar-19 00:31N 47°36' W 122°21'0 0.0
2015-Mar-18 23:33N 47°36' W 122°21'0 0.0
2015-Mar-18 22:33N 47°36' W 122°21'0 0.0
2015-Mar-18 21:32N 47°36' W 122°21'0 0.0
2015-Mar-18 20:32N 47°36' W 122°21'0 0.0
2015-Mar-18 19:32N 47°36' W 122°21'0 0.0
2015-Mar-18 18:31N 47°36' W 122°21'0 0.0
2015-Mar-18 17:31N 47°36' W 122°21'0 0.0
2015-Mar-18 16:33N 47°36' W 122°21'0 0.0
2015-Mar-18 15:33N 47°36' W 122°21'0 0.0
2015-Mar-18 14:29N 47°36' W 122°21'0 0.0
2015-Mar-18 13:32N 47°36' W 122°21'0 0.0
2015-Mar-18 12:32N 47°36' W 122°21'0 0.0
2015-Mar-18 11:31N 47°36' W 122°21'0 0.0
2015-Mar-18 10:31N 47°36' W 122°21'0 0.0
2015-Mar-18 09:33N 47°36' W 122°21'0 0.0
2015-Mar-18 08:33N 47°36' W 122°21'0 0.0
2015-Mar-18 07:32N 47°36' W 122°21'0 0.0
2015-Mar-18 06:32N 47°36' W 122°21'0 0.0
2015-Mar-18 05:31N 47°36' W 122°21'0 0.0
2015-Mar-18 04:31N 47°36' W 122°21'0 0.0
2015-Mar-18 03:31N 47°36' W 122°21'0 0.0
2015-Mar-18 02:33N 47°36' W 122°21'0 0.0
2015-Mar-18 01:33N 47°36' W 122°21'0 0.0
2015-Mar-18 00:32N 47°36' W 122°21'0 0.0
2015-Mar-17 23:32N 47°36' W 122°21'0 0.0
2015-Mar-17 22:31N 47°36' W 122°21'0 0.0
2015-Mar-17 21:31N 47°36' W 122°21'0 0.0
2015-Mar-17 20:31N 47°36' W 122°21'0 0.0
2015-Mar-17 19:32N 47°36' W 122°21'0 0.0
2015-Mar-17 18:28N 47°36' W 122°21'0 0.0
2015-Mar-17 17:31N 47°36' W 122°21'0 0.0
2015-Mar-17 16:34N 47°36' W 122°21'0 0.0
2015-Mar-17 15:33N 47°36' W 122°21'0 0.0
2015-Mar-17 14:33N 47°36' W 122°21'0 0.2
2015-Mar-17 13:32N 47°36' W 122°21'0 0.0
2015-Mar-17 12:33N 47°36' W 122°21'4 3.8
2015-Mar-17 11:33N 47°38' W 122°26'1615.6
2015-Mar-17 10:33N 47°53' W 122°29'1716.8
2015-Mar-17 09:33N 48°08' W 122°42'1817.9
2015-Mar-17 08:33N 48°12' W 123°08'1212.1
2015-Mar-17 07:33N 48°11' W 123°26'9 9.3
2015-Mar-17 06:34N 48°13' W 123°40'1514.9
2015-Mar-17 05:33N 48°15' W 124°02'1414.4
2015-Mar-17 04:34N 48°21' W 124°21'1414.0
2015-Mar-17 03:33N 48°27' W 124°40'1313.2
2015-Mar-17 02:33N 48°29' W 125°00'1312.9
2015-Mar-17 01:34N 48°32' W 125°19'1312.8
2015-Mar-17 00:33N 48°38' W 125°36'1312.7
2015-Mar-16 23:33N 48°43' W 125°54'1212.5
2015-Mar-16 22:33N 48°49' W 126°11'  
Track history (hours):
 
Tides and Currents Weather Stations Pressure Air Temp Water Temp Dewpoint Dewpoint Depression Visibility Wind Speed Wind Dir Waves Ship Positions

Hanjin Ottawa

Last reported at 2015-Mar-26 22:18 UTC. Time now 2015-Mar-30 17:33 UTC.
Position N 49°06' W 134°30'.

Length 278.8 m; beam 40.3 m; draft 14 m.

Type: Ship. MMSI: 211378360.

Wind from 220 at 18 knots

Waves 2.0 meters (7 feet), 2 second period

Barometer 1010.0 mb
Air temperature 12.0 ° C
Visibility: greater than 5.4 NM
Water temperature 8.0 ° C

Date/timePositionNaut miles runAvg speedWind from/ knotsBaromVisibWave heightAir tempDewpointWater temp
2015-Mar-26 22:18N 49°06' W 134°30'   220 / 181010.0 5.4 2.012.0 8.0
2015-Mar-24 17:31N 48°31' W 126°29'10 9.2
2015-Mar-24 16:28N 48°31' W 126°15'9 9.5
2015-Mar-24 15:33N 48°30' W 126°02'9 9.3
2015-Mar-24 14:33N 48°30' W 125°48'9 9.5
2015-Mar-24 13:33N 48°31' W 125°33'9 9.0
2015-Mar-24 12:33N 48°32' W 125°20'9 9.0
2015-Mar-24 11:33N 48°31' W 125°06'9 9.1
2015-Mar-24 10:33N 48°31' W 124°53'9 9.2
2015-Mar-24 09:33N 48°29' W 124°39'1010.2
2015-Mar-24 08:33N 48°25' W 124°25'1110.9
2015-Mar-24 07:33N 48°21' W 124°10'1211.5
2015-Mar-24 06:32N 48°17' W 123°53'1010.7
2015-Mar-24 05:33N 48°16' W 123°37'1010.5
2015-Mar-24 04:33N 48°22' W 123°25'1211.8
2015-Mar-24 03:33N 48°31' W 123°13'1312.7
2015-Mar-24 02:33N 48°44' W 123°09'10 9.7
2015-Mar-24 01:34N 48°53' W 123°07'1515.1
2015-Mar-24 00:33N 49°04' W 123°24'1615.6
2015-Mar-23 23:33N 49°19' W 123°17'8 7.9
2015-Mar-23 22:32N 49°17' W 123°05'0 0.0
2015-Mar-23 21:32N 49°17' W 123°05'0 0.0
2015-Mar-23 20:31N 49°17' W 123°05'0 0.0
2015-Mar-23 19:31N 49°17' W 123°05'0 0.0
2015-Mar-23 18:30N 49°17' W 123°05'0 0.0
2015-Mar-23 17:33N 49°17' W 123°05'0 0.0
2015-Mar-23 16:32N 49°17' W 123°05'0 0.0
2015-Mar-23 15:29N 49°17' W 123°05'0 0.0
2015-Mar-23 14:32N 49°17' W 123°05'0 0.0
2015-Mar-23 13:31N 49°17' W 123°05'0 0.0
2015-Mar-23 12:31N 49°17' W 123°05'0 0.0
2015-Mar-23 11:33N 49°17' W 123°05'0 0.0
2015-Mar-23 10:33N 49°17' W 123°05'0 0.0
2015-Mar-23 09:32N 49°17' W 123°05'0 0.0
2015-Mar-23 08:32N 49°17' W 123°05'0 0.0
2015-Mar-23 07:32N 49°17' W 123°05'0 0.0
2015-Mar-23 06:31N 49°17' W 123°05'0 0.0
2015-Mar-23 05:31N 49°17' W 123°05'0 0.0
2015-Mar-23 04:30N 49°17' W 123°05'0 0.0
2015-Mar-23 03:33N 49°17' W 123°05'0 0.0
2015-Mar-23 02:32N 49°17' W 123°05'0 0.0
2015-Mar-23 01:32N 49°17' W 123°05'0 0.0
2015-Mar-23 00:25N 49°17' W 123°05'0 0.0
2015-Mar-22 23:31N 49°17' W 123°05'1 0.9
2015-Mar-22 22:33N 49°18' W 123°06'1111.0
2015-Mar-22 21:33N 49°11' W 123°20'1514.5
2015-Mar-22 20:33N 48°58' W 123°12'1313.3
2015-Mar-22 19:33N 48°46' W 123°03'1111.4
2015-Mar-22 18:33N 48°37' W 123°13'1312.7
2015-Mar-22 17:33N 48°24' W 123°12'1110.7
2015-Mar-22 16:33N 48°18' W 123°26'10 9.9
2015-Mar-22 15:33N 48°09' W 123°20'1616.2
2015-Mar-22 14:33N 48°12' W 122°56'1514.8
2015-Mar-22 13:33N 48°03' W 122°38'1515.3
2015-Mar-22 12:33N 47°50' W 122°27'1414.0
2015-Mar-22 11:33N 47°36' W 122°22'1 1.2
2015-Mar-22 10:33N 47°36' W 122°21'0 0.0
2015-Mar-22 09:33N 47°36' W 122°21'0 0.0
2015-Mar-22 08:32N 47°36' W 122°21'0 0.0
2015-Mar-22 07:32N 47°36' W 122°21'0 0.0
2015-Mar-22 06:32N 47°36' W 122°21'0 0.0
2015-Mar-22 05:31N 47°36' W 122°21'0 0.0
2015-Mar-22 04:31N 47°36' W 122°21'0 0.0
2015-Mar-22 03:30N 47°36' W 122°21'0 0.0
2015-Mar-22 02:33N 47°36' W 122°21'0 0.0
2015-Mar-22 01:32N 47°36' W 122°21'0 0.0
2015-Mar-22 00:29N 47°36' W 122°21'0 0.0
2015-Mar-21 23:32N 47°36' W 122°21'0 0.0
2015-Mar-21 22:31N 47°36' W 122°21'0 0.0
2015-Mar-21 21:28N 47°36' W 122°21'0 0.0
2015-Mar-21 20:33N 47°36' W 122°21'0 0.0
2015-Mar-21 19:33N 47°36' W 122°21'0 0.0
2015-Mar-21 18:32N 47°36' W 122°21'0 0.0
2015-Mar-21 17:32N 47°36' W 122°21'0 0.0
2015-Mar-21 16:31N 47°36' W 122°21'0 0.0
2015-Mar-21 15:31N 47°36' W 122°21'0 0.0
2015-Mar-21 14:31N 47°36' W 122°21'0 0.0
2015-Mar-21 13:30N 47°36' W 122°21'0 0.0
2015-Mar-21 12:30N 47°36' W 122°21'0 0.0
2015-Mar-21 11:32N 47°36' W 122°21'0 0.0
2015-Mar-21 10:32N 47°36' W 122°21'0 0.0
2015-Mar-21 09:31N 47°36' W 122°21'0 0.0
2015-Mar-21 08:31N 47°36' W 122°21'0 0.0
2015-Mar-21 07:31N 47°36' W 122°21'0 0.0
2015-Mar-21 06:33N 47°36' W 122°21'0 0.0
2015-Mar-21 05:33N 47°36' W 122°21'0 0.0
2015-Mar-21 04:32N 47°36' W 122°21'0 0.0
2015-Mar-21 03:32N 47°36' W 122°21'0 0.0
2015-Mar-21 02:31N 47°36' W 122°21'0 0.0
2015-Mar-21 01:31N 47°36' W 122°21'0 0.0
2015-Mar-21 00:31N 47°36' W 122°21'0 0.0
2015-Mar-20 23:33N 47°36' W 122°21'0 0.0
2015-Mar-20 22:30N 47°36' W 122°21'0 0.0
2015-Mar-20 21:29N 47°36' W 122°21'0 0.0
2015-Mar-20 20:32N 47°36' W 122°21'0 0.0
2015-Mar-20 19:28N 47°36' W 122°21'0 0.0
2015-Mar-20 18:31N 47°36' W 122°21'0 0.0
2015-Mar-20 17:34N 47°36' W 122°21'0 0.0
2015-Mar-20 16:33N 47°36' W 122°21'0 0.0
2015-Mar-20 15:33N 47°36' W 122°21'0 0.0
2015-Mar-20 14:32N 47°36' W 122°21'0 0.0
2015-Mar-20 13:32N 47°36' W 122°21'0 0.0
2015-Mar-20 12:31N 47°36' W 122°21'0 0.0
2015-Mar-20 11:28N 47°36' W 122°21'0 0.0
2015-Mar-20 10:33N 47°36' W 122°21'0 0.0
2015-Mar-20 09:33N 47°36' W 122°21'0 0.0
2015-Mar-20 08:33N 47°36' W 122°21'0 0.0
2015-Mar-20 07:29N 47°36' W 122°21'0 0.0
2015-Mar-20 06:32N 47°36' W 122°21'0 0.0
2015-Mar-20 05:31N 47°36' W 122°21'0 0.0
2015-Mar-20 04:31N 47°36' W 122°21'0 0.0
2015-Mar-20 03:30N 47°36' W 122°21'0 0.0
2015-Mar-20 02:33N 47°36' W 122°21'0 0.0
2015-Mar-20 01:33N 47°36' W 122°21'0 0.0
2015-Mar-20 00:26N 47°36' W 122°21'0 0.0
2015-Mar-19 23:32N 47°36' W 122°21'0 0.0
2015-Mar-19 22:22N 47°36' W 122°21'0 0.0
2015-Mar-19 21:33N 47°36' W 122°21'0 0.0
2015-Mar-19 20:30N 47°36' W 122°21'0 0.0
2015-Mar-19 19:30N 47°36' W 122°21'0 0.0
2015-Mar-19 18:33N 47°36' W 122°21'0 0.0
2015-Mar-19 17:32N 47°36' W 122°21'0 0.0
2015-Mar-19 16:32N 47°36' W 122°21'0 0.0
2015-Mar-19 15:31N 47°36' W 122°21'0 0.0
2015-Mar-19 14:31N 47°36' W 122°21'0 0.0
2015-Mar-19 13:33N 47°36' W 122°21'0 0.0
2015-Mar-19 12:33N 47°36' W 122°21'0 0.0
2015-Mar-19 11:29N 47°36' W 122°21'0 0.0
2015-Mar-19 10:32N 47°36' W 122°21'0 0.0
2015-Mar-19 09:32N 47°36' W 122°21'0 0.0
2015-Mar-19 08:31N 47°36' W 122°21'0 0.0
2015-Mar-19 07:31N 47°36' W 122°21'0 0.0
2015-Mar-19 06:33N 47°36' W 122°21'0 0.0
2015-Mar-19 05:33N 47°36' W 122°21'0 0.0
2015-Mar-19 04:32N 47°36' W 122°21'0 0.0
2015-Mar-19 03:32N 47°36' W 122°21'0 0.0
2015-Mar-19 02:32N 47°36' W 122°21'0 0.0
2015-Mar-19 01:31N 47°36' W 122°21'0 0.0
2015-Mar-19 00:31N 47°36' W 122°21'0 0.0
2015-Mar-18 23:33N 47°36' W 122°21'0 0.0
2015-Mar-18 22:33N 47°36' W 122°21'0 0.0
2015-Mar-18 21:32N 47°36' W 122°21'0 0.0
2015-Mar-18 20:32N 47°36' W 122°21'0 0.0
2015-Mar-18 19:32N 47°36' W 122°21'0 0.0
2015-Mar-18 18:31N 47°36' W 122°21'0 0.0
2015-Mar-18 17:31N 47°36' W 122°21'0 0.0
2015-Mar-18 16:33N 47°36' W 122°21'0 0.0
2015-Mar-18 15:33N 47°36' W 122°21'0 0.0
2015-Mar-18 14:29N 47°36' W 122°21'0 0.0
2015-Mar-18 13:32N 47°36' W 122°21'0 0.0
2015-Mar-18 12:32N 47°36' W 122°21'0 0.0
2015-Mar-18 11:31N 47°36' W 122°21'0 0.0
2015-Mar-18 10:31N 47°36' W 122°21'0 0.0
2015-Mar-18 09:33N 47°36' W 122°21'0 0.0
2015-Mar-18 08:33N 47°36' W 122°21'0 0.0
2015-Mar-18 07:32N 47°36' W 122°21'0 0.0
2015-Mar-18 06:32N 47°36' W 122°21'0 0.0
2015-Mar-18 05:31N 47°36' W 122°21'0 0.0
2015-Mar-18 04:31N 47°36' W 122°21'0 0.0
2015-Mar-18 03:31N 47°36' W 122°21'0 0.0
2015-Mar-18 02:33N 47°36' W 122°21'0 0.0
2015-Mar-18 01:33N 47°36' W 122°21'0 0.0
2015-Mar-18 00:32N 47°36' W 122°21'0 0.0
2015-Mar-17 23:32N 47°36' W 122°21'0 0.0
2015-Mar-17 22:31N 47°36' W 122°21'0 0.0
2015-Mar-17 21:31N 47°36' W 122°21'0 0.0
2015-Mar-17 20:31N 47°36' W 122°21'0 0.0
2015-Mar-17 19:32N 47°36' W 122°21'0 0.0
2015-Mar-17 18:28N 47°36' W 122°21'0 0.0
2015-Mar-17 17:31N 47°36' W 122°21'0 0.0
2015-Mar-17 16:34N 47°36' W 122°21'0 0.0
2015-Mar-17 15:33N 47°36' W 122°21'0 0.0
2015-Mar-17 14:33N 47°36' W 122°21'0 0.2
2015-Mar-17 13:32N 47°36' W 122°21'0 0.0
2015-Mar-17 12:33N 47°36' W 122°21'4 3.8
2015-Mar-17 11:33N 47°38' W 122°26'1615.6
2015-Mar-17 10:33N 47°53' W 122°29'1716.8
2015-Mar-17 09:33N 48°08' W 122°42'1817.9
2015-Mar-17 08:33N 48°12' W 123°08'1212.1
2015-Mar-17 07:33N 48°11' W 123°26'9 9.3
2015-Mar-17 06:34N 48°13' W 123°40'1514.9
2015-Mar-17 05:33N 48°15' W 124°02'1414.4
2015-Mar-17 04:34N 48°21' W 124°21'1414.0
2015-Mar-17 03:33N 48°27' W 124°40'1313.2
2015-Mar-17 02:33N 48°29' W 125°00'1312.9
2015-Mar-17 01:34N 48°32' W 125°19'1312.8
2015-Mar-17 00:33N 48°38' W 125°36'1312.7
2015-Mar-16 23:33N 48°43' W 125°54'1212.5
2015-Mar-16 22:33N 48°49' W 126°11'  

Dump ship's entire track history